sensor_id;sensor_type;location;lat;lon;timestamp;P1;durP1;ratioP1;P2;durP2;ratioP2
23472;SDS011;11909;52.516;13.564;2023-07-02T00:00:07;3.00;;;2.50;;
23472;SDS011;11909;52.516;13.564;2023-07-02T00:02:37;3.70;;;2.17;;
23472;SDS011;11909;52.516;13.564;2023-07-02T00:05:05;1.60;;;1.50;;
23472;SDS011;11909;52.516;13.564;2023-07-02T00:07:34;1.92;;;1.65;;
23472;SDS011;11909;52.516;13.564;2023-07-02T00:10:04;3.22;;;1.60;;
23472;SDS011;11909;52.516;13.564;2023-07-02T00:12:32;3.38;;;1.45;;
23472;SDS011;11909;52.516;13.564;2023-07-02T00:15:00;5.22;;;1.65;;
23472;SDS011;11909;52.516;13.564;2023-07-02T00:17:28;3.47;;;1.30;;
23472;SDS011;11909;52.516;13.564;2023-07-02T00:19:58;2.25;;;1.50;;
23472;SDS011;11909;52.516;13.564;2023-07-02T00:22:32;1.58;;;1.48;;
23472;SDS011;11909;52.516;13.564;2023-07-02T00:25:03;1.85;;;1.50;;
23472;SDS011;11909;52.516;13.564;2023-07-02T00:27:31;1.50;;;1.40;;
23472;SDS011;11909;52.516;13.564;2023-07-02T00:29:59;2.22;;;1.52;;
23472;SDS011;11909;52.516;13.564;2023-07-02T00:32:27;1.88;;;1.73;;
23472;SDS011;11909;52.516;13.564;2023-07-02T00:34:55;2.13;;;1.60;;
23472;SDS011;11909;52.516;13.564;2023-07-02T00:37:24;2.97;;;1.90;;
23472;SDS011;11909;52.516;13.564;2023-07-02T00:39:52;3.22;;;1.70;;
23472;SDS011;11909;52.516;13.564;2023-07-02T00:42:20;2.25;;;1.83;;
23472;SDS011;11909;52.516;13.564;2023-07-02T00:44:49;5.53;;;1.90;;
23472;SDS011;11909;52.516;13.564;2023-07-02T00:47:19;2.45;;;2.08;;
23472;SDS011;11909;52.516;13.564;2023-07-02T00:49:46;2.03;;;1.88;;
23472;SDS011;11909;52.516;13.564;2023-07-02T00:52:15;1.90;;;1.80;;
23472;SDS011;11909;52.516;13.564;2023-07-02T00:54:46;3.17;;;2.00;;
23472;SDS011;11909;52.516;13.564;2023-07-02T00:57:14;3.42;;;1.75;;
23472;SDS011;11909;52.516;13.564;2023-07-02T00:59:42;6.35;;;2.40;;
23472;SDS011;11909;52.516;13.564;2023-07-02T01:02:10;3.33;;;2.20;;
23472;SDS011;11909;52.516;13.564;2023-07-02T01:04:39;2.20;;;1.95;;
23472;SDS011;11909;52.516;13.564;2023-07-02T01:07:07;2.60;;;2.40;;
23472;SDS011;11909;52.516;13.564;2023-07-02T01:09:37;3.70;;;2.50;;
23472;SDS011;11909;52.516;13.564;2023-07-02T01:12:07;5.78;;;2.28;;
23472;SDS011;11909;52.516;13.564;2023-07-02T01:14:38;3.60;;;2.50;;
23472;SDS011;11909;52.516;13.564;2023-07-02T01:17:07;5.45;;;2.45;;
23472;SDS011;11909;52.516;13.564;2023-07-02T01:19:44;2.63;;;2.25;;
23472;SDS011;11909;52.516;13.564;2023-07-02T01:22:18;3.38;;;2.63;;
23472;SDS011;11909;52.516;13.564;2023-07-02T01:24:46;3.95;;;2.55;;
23472;SDS011;11909;52.516;13.564;2023-07-02T01:27:15;4.78;;;2.58;;
23472;SDS011;11909;52.516;13.564;2023-07-02T01:29:44;3.83;;;3.10;;
23472;SDS011;11909;52.516;13.564;2023-07-02T01:32:13;3.65;;;2.80;;
23472;SDS011;11909;52.516;13.564;2023-07-02T01:34:42;4.63;;;3.20;;
23472;SDS011;11909;52.516;13.564;2023-07-02T01:37:15;3.80;;;3.00;;
23472;SDS011;11909;52.516;13.564;2023-07-02T01:39:44;4.60;;;2.67;;
23472;SDS011;11909;52.516;13.564;2023-07-02T01:42:12;6.88;;;2.92;;
23472;SDS011;11909;52.516;13.564;2023-07-02T01:44:42;5.80;;;3.17;;
23472;SDS011;11909;52.516;13.564;2023-07-02T01:47:11;4.47;;;3.58;;
23472;SDS011;11909;52.516;13.564;2023-07-02T01:49:39;4.40;;;3.08;;
23472;SDS011;11909;52.516;13.564;2023-07-02T01:52:08;4.70;;;3.28;;
23472;SDS011;11909;52.516;13.564;2023-07-02T01:54:36;5.95;;;3.40;;
23472;SDS011;11909;52.516;13.564;2023-07-02T01:57:04;4.43;;;3.20;;
23472;SDS011;11909;52.516;13.564;2023-07-02T01:59:32;3.95;;;3.03;;
23472;SDS011;11909;52.516;13.564;2023-07-02T02:02:00;4.35;;;3.80;;
23472;SDS011;11909;52.516;13.564;2023-07-02T02:04:28;3.85;;;3.20;;
23472;SDS011;11909;52.516;13.564;2023-07-02T02:06:56;6.20;;;3.50;;
23472;SDS011;11909;52.516;13.564;2023-07-02T02:09:25;3.88;;;3.35;;
23472;SDS011;11909;52.516;13.564;2023-07-02T02:14:22;7.50;;;3.47;;
23472;SDS011;11909;52.516;13.564;2023-07-02T02:16:50;6.72;;;3.83;;
23472;SDS011;11909;52.516;13.564;2023-07-02T02:19:18;7.70;;;3.80;;
23472;SDS011;11909;52.516;13.564;2023-07-02T02:21:46;5.13;;;3.70;;
23472;SDS011;11909;52.516;13.564;2023-07-02T02:24:14;5.20;;;3.88;;
23472;SDS011;11909;52.516;13.564;2023-07-02T02:26:43;10.55;;;4.40;;
23472;SDS011;11909;52.516;13.564;2023-07-02T02:29:11;4.57;;;4.18;;
23472;SDS011;11909;52.516;13.564;2023-07-02T02:31:39;6.40;;;4.00;;
23472;SDS011;11909;52.516;13.564;2023-07-02T02:34:07;5.55;;;4.22;;
23472;SDS011;11909;52.516;13.564;2023-07-02T02:36:35;6.55;;;4.28;;
23472;SDS011;11909;52.516;13.564;2023-07-02T02:39:02;8.27;;;4.38;;
23472;SDS011;11909;52.516;13.564;2023-07-02T02:41:31;6.40;;;3.92;;
23472;SDS011;11909;52.516;13.564;2023-07-02T02:44:00;6.70;;;4.15;;
23472;SDS011;11909;52.516;13.564;2023-07-02T02:46:28;4.05;;;3.50;;
23472;SDS011;11909;52.516;13.564;2023-07-02T02:48:56;7.97;;;4.47;;
23472;SDS011;11909;52.516;13.564;2023-07-02T02:51:23;7.57;;;4.40;;
23472;SDS011;11909;52.516;13.564;2023-07-02T02:53:52;8.68;;;3.60;;
23472;SDS011;11909;52.516;13.564;2023-07-02T02:56:19;5.85;;;3.60;;
23472;SDS011;11909;52.516;13.564;2023-07-02T02:58:47;4.20;;;3.60;;
23472;SDS011;11909;52.516;13.564;2023-07-02T03:01:16;3.90;;;3.35;;
23472;SDS011;11909;52.516;13.564;2023-07-02T03:03:44;6.95;;;3.80;;
23472;SDS011;11909;52.516;13.564;2023-07-02T03:06:12;4.20;;;3.45;;
23472;SDS011;11909;52.516;13.564;2023-07-02T03:08:42;3.70;;;3.22;;
23472;SDS011;11909;52.516;13.564;2023-07-02T03:11:09;5.47;;;3.38;;
23472;SDS011;11909;52.516;13.564;2023-07-02T03:13:38;8.00;;;4.03;;
23472;SDS011;11909;52.516;13.564;2023-07-02T03:16:05;3.88;;;3.17;;
23472;SDS011;11909;52.516;13.564;2023-07-02T03:18:35;5.07;;;3.78;;
23472;SDS011;11909;52.516;13.564;2023-07-02T03:21:03;4.18;;;3.67;;
23472;SDS011;11909;52.516;13.564;2023-07-02T03:23:31;8.55;;;4.03;;
23472;SDS011;11909;52.516;13.564;2023-07-02T03:25:59;5.70;;;3.60;;
23472;SDS011;11909;52.516;13.564;2023-07-02T03:28:26;5.22;;;3.70;;
23472;SDS011;11909;52.516;13.564;2023-07-02T03:30:54;6.43;;;3.40;;
23472;SDS011;11909;52.516;13.564;2023-07-02T03:33:22;5.68;;;3.78;;
23472;SDS011;11909;52.516;13.564;2023-07-02T03:35:51;5.38;;;3.22;;
23472;SDS011;11909;52.516;13.564;2023-07-02T03:38:19;3.45;;;3.13;;
23472;SDS011;11909;52.516;13.564;2023-07-02T03:40:47;3.45;;;3.15;;
23472;SDS011;11909;52.516;13.564;2023-07-02T03:43:16;5.45;;;3.40;;
23472;SDS011;11909;52.516;13.564;2023-07-02T03:45:44;6.20;;;3.05;;
23472;SDS011;11909;52.516;13.564;2023-07-02T03:48:11;3.60;;;3.10;;
23472;SDS011;11909;52.516;13.564;2023-07-02T03:50:39;4.75;;;3.05;;
23472;SDS011;11909;52.516;13.564;2023-07-02T03:53:08;7.03;;;2.90;;
23472;SDS011;11909;52.516;13.564;2023-07-02T03:55:36;4.93;;;2.97;;
23472;SDS011;11909;52.516;13.564;2023-07-02T03:58:05;3.33;;;2.90;;
23472;SDS011;11909;52.516;13.564;2023-07-02T04:00:33;4.40;;;2.75;;
23472;SDS011;11909;52.516;13.564;2023-07-02T04:03:01;3.45;;;2.80;;
23472;SDS011;11909;52.516;13.564;2023-07-02T04:05:29;4.07;;;2.60;;
23472;SDS011;11909;52.516;13.564;2023-07-02T04:07:57;3.78;;;2.67;;
23472;SDS011;11909;52.516;13.564;2023-07-02T04:10:27;7.45;;;2.97;;
23472;SDS011;11909;52.516;13.564;2023-07-02T04:12:55;2.80;;;2.50;;
23472;SDS011;11909;52.516;13.564;2023-07-02T04:15:22;3.10;;;2.72;;
23472;SDS011;11909;52.516;13.564;2023-07-02T04:17:53;5.38;;;2.35;;
23472;SDS011;11909;52.516;13.564;2023-07-02T04:20:21;4.65;;;2.80;;
23472;SDS011;11909;52.516;13.564;2023-07-02T04:22:49;4.85;;;2.65;;
23472;SDS011;11909;52.516;13.564;2023-07-02T04:25:17;4.13;;;2.40;;
23472;SDS011;11909;52.516;13.564;2023-07-02T04:28:06;3.25;;;2.38;;
23472;SDS011;11909;52.516;13.564;2023-07-02T04:30:34;3.90;;;2.40;;
23472;SDS011;11909;52.516;13.564;2023-07-02T04:33:02;6.88;;;2.60;;
23472;SDS011;11909;52.516;13.564;2023-07-02T04:35:31;5.67;;;2.70;;
23472;SDS011;11909;52.516;13.564;2023-07-02T04:38:00;5.78;;;3.00;;
23472;SDS011;11909;52.516;13.564;2023-07-02T04:40:28;8.32;;;3.13;;
23472;SDS011;11909;52.516;13.564;2023-07-02T04:42:56;5.35;;;2.70;;
23472;SDS011;11909;52.516;13.564;2023-07-02T04:45:26;4.03;;;2.58;;
23472;SDS011;11909;52.516;13.564;2023-07-02T04:47:58;6.22;;;2.70;;
23472;SDS011;11909;52.516;13.564;2023-07-02T04:50:27;3.70;;;2.40;;
23472;SDS011;11909;52.516;13.564;2023-07-02T04:52:55;4.30;;;2.40;;
23472;SDS011;11909;52.516;13.564;2023-07-02T04:55:23;5.70;;;2.47;;
23472;SDS011;11909;52.516;13.564;2023-07-02T04:57:51;2.95;;;2.33;;
23472;SDS011;11909;52.516;13.564;2023-07-02T05:00:19;3.85;;;2.60;;
23472;SDS011;11909;52.516;13.564;2023-07-02T05:02:49;7.47;;;2.58;;
23472;SDS011;11909;52.516;13.564;2023-07-02T05:05:18;3.78;;;2.47;;
23472;SDS011;11909;52.516;13.564;2023-07-02T05:07:46;3.17;;;2.38;;
23472;SDS011;11909;52.516;13.564;2023-07-02T05:10:14;4.93;;;2.22;;
23472;SDS011;11909;52.516;13.564;2023-07-02T05:12:42;4.38;;;2.35;;
23472;SDS011;11909;52.516;13.564;2023-07-02T05:15:10;4.90;;;2.72;;
23472;SDS011;11909;52.516;13.564;2023-07-02T05:17:39;3.63;;;2.10;;
23472;SDS011;11909;52.516;13.564;2023-07-02T05:20:09;5.85;;;2.33;;
23472;SDS011;11909;52.516;13.564;2023-07-02T05:25:05;2.60;;;2.20;;
23472;SDS011;11909;52.516;13.564;2023-07-02T05:27:33;3.28;;;2.40;;
23472;SDS011;11909;52.516;13.564;2023-07-02T05:30:01;4.72;;;2.53;;
23472;SDS011;11909;52.516;13.564;2023-07-02T05:32:30;8.30;;;3.65;;
23472;SDS011;11909;52.516;13.564;2023-07-02T05:35:01;5.32;;;2.20;;
23472;SDS011;11909;52.516;13.564;2023-07-02T05:37:30;4.40;;;2.50;;
23472;SDS011;11909;52.516;13.564;2023-07-02T05:39:58;6.13;;;2.35;;
23472;SDS011;11909;52.516;13.564;2023-07-02T05:42:25;6.25;;;2.60;;
23472;SDS011;11909;52.516;13.564;2023-07-02T05:44:53;5.22;;;2.88;;
23472;SDS011;11909;52.516;13.564;2023-07-02T05:47:21;6.35;;;2.60;;
23472;SDS011;11909;52.516;13.564;2023-07-02T05:49:49;5.68;;;2.50;;
23472;SDS011;11909;52.516;13.564;2023-07-02T05:52:17;6.13;;;2.83;;
23472;SDS011;11909;52.516;13.564;2023-07-02T05:54:46;5.25;;;2.42;;
23472;SDS011;11909;52.516;13.564;2023-07-02T05:57:14;3.90;;;2.47;;
23472;SDS011;11909;52.516;13.564;2023-07-02T05:59:42;10.27;;;2.63;;
23472;SDS011;11909;52.516;13.564;2023-07-02T06:02:10;6.18;;;2.55;;
23472;SDS011;11909;52.516;13.564;2023-07-02T06:04:38;4.95;;;2.40;;
23472;SDS011;11909;52.516;13.564;2023-07-02T06:07:06;7.57;;;2.80;;
23472;SDS011;11909;52.516;13.564;2023-07-02T06:09:34;5.60;;;2.50;;
23472;SDS011;11909;52.516;13.564;2023-07-02T06:12:03;9.80;;;2.70;;
23472;SDS011;11909;52.516;13.564;2023-07-02T06:14:31;3.95;;;2.42;;
23472;SDS011;11909;52.516;13.564;2023-07-02T06:16:59;5.47;;;2.22;;
23472;SDS011;11909;52.516;13.564;2023-07-02T06:19:29;5.40;;;2.72;;
23472;SDS011;11909;52.516;13.564;2023-07-02T06:22:00;6.45;;;2.72;;
23472;SDS011;11909;52.516;13.564;2023-07-02T06:24:30;5.30;;;2.45;;
23472;SDS011;11909;52.516;13.564;2023-07-02T06:26:58;4.63;;;2.47;;
23472;SDS011;11909;52.516;13.564;2023-07-02T06:29:27;4.30;;;2.20;;
23472;SDS011;11909;52.516;13.564;2023-07-02T06:31:56;9.02;;;2.80;;
23472;SDS011;11909;52.516;13.564;2023-07-02T06:34:23;8.98;;;2.55;;
23472;SDS011;11909;52.516;13.564;2023-07-02T06:36:51;5.90;;;2.65;;
23472;SDS011;11909;52.516;13.564;2023-07-02T06:39:19;4.78;;;2.38;;
23472;SDS011;11909;52.516;13.564;2023-07-02T06:41:47;7.47;;;2.70;;
23472;SDS011;11909;52.516;13.564;2023-07-02T06:44:15;4.25;;;2.35;;
23472;SDS011;11909;52.516;13.564;2023-07-02T06:46:46;8.70;;;3.80;;
23472;SDS011;11909;52.516;13.564;2023-07-02T06:49:15;5.05;;;2.22;;
23472;SDS011;11909;52.516;13.564;2023-07-02T06:51:43;4.95;;;2.65;;
23472;SDS011;11909;52.516;13.564;2023-07-02T06:54:11;6.78;;;2.80;;
23472;SDS011;11909;52.516;13.564;2023-07-02T06:56:39;6.22;;;2.55;;
23472;SDS011;11909;52.516;13.564;2023-07-02T06:59:07;5.53;;;3.00;;
23472;SDS011;11909;52.516;13.564;2023-07-02T07:01:36;7.75;;;3.25;;
23472;SDS011;11909;52.516;13.564;2023-07-02T07:04:05;5.55;;;2.92;;
23472;SDS011;11909;52.516;13.564;2023-07-02T07:06:33;7.20;;;2.58;;
23472;SDS011;11909;52.516;13.564;2023-07-02T07:09:02;5.72;;;2.40;;
23472;SDS011;11909;52.516;13.564;2023-07-02T07:11:30;6.65;;;2.75;;
23472;SDS011;11909;52.516;13.564;2023-07-02T07:13:58;6.35;;;2.40;;
23472;SDS011;11909;52.516;13.564;2023-07-02T07:16:26;6.20;;;2.60;;
23472;SDS011;11909;52.516;13.564;2023-07-02T07:18:54;6.95;;;2.55;;
23472;SDS011;11909;52.516;13.564;2023-07-02T07:21:24;4.45;;;2.55;;
23472;SDS011;11909;52.516;13.564;2023-07-02T07:23:52;8.77;;;2.47;;
23472;SDS011;11909;52.516;13.564;2023-07-02T07:26:20;8.73;;;2.90;;
23472;SDS011;11909;52.516;13.564;2023-07-02T07:28:48;8.70;;;3.97;;
23472;SDS011;11909;52.516;13.564;2023-07-02T07:31:16;9.23;;;3.20;;
23472;SDS011;11909;52.516;13.564;2023-07-02T07:33:45;4.57;;;2.47;;
23472;SDS011;11909;52.516;13.564;2023-07-02T07:36:13;4.53;;;2.47;;
23472;SDS011;11909;52.516;13.564;2023-07-02T07:38:44;7.05;;;2.83;;
23472;SDS011;11909;52.516;13.564;2023-07-02T07:41:12;6.97;;;2.58;;
23472;SDS011;11909;52.516;13.564;2023-07-02T07:43:40;5.45;;;2.42;;
23472;SDS011;11909;52.516;13.564;2023-07-02T07:46:08;3.78;;;2.40;;
23472;SDS011;11909;52.516;13.564;2023-07-02T07:48:37;4.95;;;2.70;;
23472;SDS011;11909;52.516;13.564;2023-07-02T07:51:05;7.75;;;3.20;;
23472;SDS011;11909;52.516;13.564;2023-07-02T07:53:33;7.75;;;2.90;;
23472;SDS011;11909;52.516;13.564;2023-07-02T07:56:07;5.22;;;2.75;;
23472;SDS011;11909;52.516;13.564;2023-07-02T07:58:35;7.47;;;2.85;;
23472;SDS011;11909;52.516;13.564;2023-07-02T08:01:04;5.60;;;2.92;;
23472;SDS011;11909;52.516;13.564;2023-07-02T08:03:32;4.78;;;2.70;;
23472;SDS011;11909;52.516;13.564;2023-07-02T08:06:00;8.07;;;2.72;;
23472;SDS011;11909;52.516;13.564;2023-07-02T08:08:28;4.03;;;2.75;;
23472;SDS011;11909;52.516;13.564;2023-07-02T08:10:57;4.43;;;2.80;;
23472;SDS011;11909;52.516;13.564;2023-07-02T08:13:27;4.47;;;2.47;;
23472;SDS011;11909;52.516;13.564;2023-07-02T08:15:55;3.70;;;2.40;;
23472;SDS011;11909;52.516;13.564;2023-07-02T08:18:23;8.50;;;2.45;;
23472;SDS011;11909;52.516;13.564;2023-07-02T08:20:51;4.13;;;2.60;;
23472;SDS011;11909;52.516;13.564;2023-07-02T08:23:19;8.43;;;2.50;;
23472;SDS011;11909;52.516;13.564;2023-07-02T08:25:47;4.75;;;2.47;;
23472;SDS011;11909;52.516;13.564;2023-07-02T08:28:16;5.00;;;2.35;;
23472;SDS011;11909;52.516;13.564;2023-07-02T08:30:45;3.53;;;2.40;;
23472;SDS011;11909;52.516;13.564;2023-07-02T08:33:14;9.70;;;2.80;;
23472;SDS011;11909;52.516;13.564;2023-07-02T08:35:42;5.85;;;2.67;;
23472;SDS011;11909;52.516;13.564;2023-07-02T08:38:10;6.60;;;3.38;;
23472;SDS011;11909;52.516;13.564;2023-07-02T08:40:38;8.27;;;2.58;;
23472;SDS011;11909;52.516;13.564;2023-07-02T08:43:05;5.10;;;2.95;;
23472;SDS011;11909;52.516;13.564;2023-07-02T08:45:34;6.45;;;2.90;;
23472;SDS011;11909;52.516;13.564;2023-07-02T08:48:03;4.18;;;2.67;;
23472;SDS011;11909;52.516;13.564;2023-07-02T08:50:33;5.82;;;2.83;;
23472;SDS011;11909;52.516;13.564;2023-07-02T08:53:02;5.20;;;3.28;;
23472;SDS011;11909;52.516;13.564;2023-07-02T08:55:30;6.78;;;3.33;;
23472;SDS011;11909;52.516;13.564;2023-07-02T08:57:58;7.78;;;3.10;;
23472;SDS011;11909;52.516;13.564;2023-07-02T09:00:27;11.02;;;3.10;;
23472;SDS011;11909;52.516;13.564;2023-07-02T09:02:57;8.27;;;2.92;;
23472;SDS011;11909;52.516;13.564;2023-07-02T09:05:27;6.97;;;3.60;;
23472;SDS011;11909;52.516;13.564;2023-07-02T09:07:56;5.00;;;3.15;;
23472;SDS011;11909;52.516;13.564;2023-07-02T09:10:28;6.32;;;3.35;;
23472;SDS011;11909;52.516;13.564;2023-07-02T09:13:03;6.55;;;3.67;;
23472;SDS011;11909;52.516;13.564;2023-07-02T09:15:35;8.52;;;3.80;;
23472;SDS011;11909;52.516;13.564;2023-07-02T09:18:14;8.75;;;3.38;;
23472;SDS011;11909;52.516;13.564;2023-07-02T09:20:44;5.10;;;3.55;;
23472;SDS011;11909;52.516;13.564;2023-07-02T09:23:13;10.23;;;3.83;;
23472;SDS011;11909;52.516;13.564;2023-07-02T09:25:40;5.85;;;3.22;;
23472;SDS011;11909;52.516;13.564;2023-07-02T09:28:16;5.88;;;3.67;;
23472;SDS011;11909;52.516;13.564;2023-07-02T09:30:48;8.02;;;3.90;;
23472;SDS011;11909;52.516;13.564;2023-07-02T09:33:18;6.40;;;3.20;;
23472;SDS011;11909;52.516;13.564;2023-07-02T09:35:47;9.30;;;3.78;;
23472;SDS011;11909;52.516;13.564;2023-07-02T09:38:18;6.60;;;4.03;;
23472;SDS011;11909;52.516;13.564;2023-07-02T09:40:48;7.13;;;3.85;;
23472;SDS011;11909;52.516;13.564;2023-07-02T09:43:19;8.45;;;4.57;;
23472;SDS011;11909;52.516;13.564;2023-07-02T09:45:49;7.35;;;3.90;;
23472;SDS011;11909;52.516;13.564;2023-07-02T09:48:18;7.93;;;4.30;;
23472;SDS011;11909;52.516;13.564;2023-07-02T09:50:53;10.70;;;5.28;;
23472;SDS011;11909;52.516;13.564;2023-07-02T09:53:21;6.65;;;4.50;;
23472;SDS011;11909;52.516;13.564;2023-07-02T09:55:49;8.10;;;4.40;;
23472;SDS011;11909;52.516;13.564;2023-07-02T09:58:17;9.88;;;4.85;;
23472;SDS011;11909;52.516;13.564;2023-07-02T10:00:45;10.95;;;5.13;;
23472;SDS011;11909;52.516;13.564;2023-07-02T10:03:14;10.82;;;4.90;;
23472;SDS011;11909;52.516;13.564;2023-07-02T10:05:41;10.15;;;4.93;;
23472;SDS011;11909;52.516;13.564;2023-07-02T10:08:14;10.80;;;5.13;;
23472;SDS011;11909;52.516;13.564;2023-07-02T10:10:44;9.10;;;4.72;;
23472;SDS011;11909;52.516;13.564;2023-07-02T10:13:13;14.25;;;7.30;;
23472;SDS011;11909;52.516;13.564;2023-07-02T10:15:41;13.10;;;5.03;;
23472;SDS011;11909;52.516;13.564;2023-07-02T10:18:09;11.55;;;5.10;;
23472;SDS011;11909;52.516;13.564;2023-07-02T10:20:37;14.13;;;5.30;;
23472;SDS011;11909;52.516;13.564;2023-07-02T10:23:06;9.93;;;5.32;;
23472;SDS011;11909;52.516;13.564;2023-07-02T10:25:37;12.38;;;5.13;;
23472;SDS011;11909;52.516;13.564;2023-07-02T10:28:14;9.57;;;4.68;;
23472;SDS011;11909;52.516;13.564;2023-07-02T10:30:44;12.43;;;5.38;;
23472;SDS011;11909;52.516;13.564;2023-07-02T10:33:13;10.25;;;5.30;;
23472;SDS011;11909;52.516;13.564;2023-07-02T10:35:43;12.65;;;5.35;;
23472;SDS011;11909;52.516;13.564;2023-07-02T10:40:43;14.15;;;5.68;;
23472;SDS011;11909;52.516;13.564;2023-07-02T10:43:13;15.25;;;5.90;;
23472;SDS011;11909;52.516;13.564;2023-07-02T10:45:41;13.00;;;5.60;;
23472;SDS011;11909;52.516;13.564;2023-07-02T10:48:09;12.50;;;5.07;;
23472;SDS011;11909;52.516;13.564;2023-07-02T10:50:37;16.08;;;5.80;;
23472;SDS011;11909;52.516;13.564;2023-07-02T10:53:05;11.52;;;5.82;;
23472;SDS011;11909;52.516;13.564;2023-07-02T10:55:33;14.43;;;5.85;;
23472;SDS011;11909;52.516;13.564;2023-07-02T10:58:05;15.77;;;5.60;;
23472;SDS011;11909;52.516;13.564;2023-07-02T11:00:42;13.32;;;5.88;;
23472;SDS011;11909;52.516;13.564;2023-07-02T11:03:18;11.50;;;5.13;;
23472;SDS011;11909;52.516;13.564;2023-07-02T11:05:47;15.77;;;5.57;;
23472;SDS011;11909;52.516;13.564;2023-07-02T11:08:16;15.38;;;5.25;;
23472;SDS011;11909;52.516;13.564;2023-07-02T11:10:46;13.15;;;5.95;;
23472;SDS011;11909;52.516;13.564;2023-07-02T11:13:15;11.93;;;6.40;;
23472;SDS011;11909;52.516;13.564;2023-07-02T11:15:45;13.43;;;5.45;;
23472;SDS011;11909;52.516;13.564;2023-07-02T11:18:15;15.37;;;6.10;;
23472;SDS011;11909;52.516;13.564;2023-07-02T11:20:44;14.93;;;5.88;;
23472;SDS011;11909;52.516;13.564;2023-07-02T11:23:16;13.15;;;6.07;;
23472;SDS011;11909;52.516;13.564;2023-07-02T11:25:55;14.50;;;5.45;;
23472;SDS011;11909;52.516;13.564;2023-07-02T11:28:25;13.85;;;5.80;;
23472;SDS011;11909;52.516;13.564;2023-07-02T11:30:54;14.73;;;6.20;;
23472;SDS011;11909;52.516;13.564;2023-07-02T11:33:37;17.20;;;6.38;;
23472;SDS011;11909;52.516;13.564;2023-07-02T11:36:06;24.13;;;12.55;;
23472;SDS011;11909;52.516;13.564;2023-07-02T11:38:35;14.85;;;6.38;;
23472;SDS011;11909;52.516;13.564;2023-07-02T11:41:04;13.45;;;5.90;;
23472;SDS011;11909;52.516;13.564;2023-07-02T11:43:33;16.88;;;6.43;;
23472;SDS011;11909;52.516;13.564;2023-07-02T11:46:01;13.43;;;5.93;;
23472;SDS011;11909;52.516;13.564;2023-07-02T11:48:30;16.58;;;6.00;;
23472;SDS011;11909;52.516;13.564;2023-07-02T11:50:57;15.25;;;5.88;;
23472;SDS011;11909;52.516;13.564;2023-07-02T11:53:25;13.15;;;5.82;;
23472;SDS011;11909;52.516;13.564;2023-07-02T11:55:53;13.68;;;5.95;;
23472;SDS011;11909;52.516;13.564;2023-07-02T11:58:21;12.23;;;6.22;;
23472;SDS011;11909;52.516;13.564;2023-07-02T12:00:50;11.63;;;5.60;;
23472;SDS011;11909;52.516;13.564;2023-07-02T12:03:18;14.45;;;6.30;;
23472;SDS011;11909;52.516;13.564;2023-07-02T12:05:46;10.77;;;6.13;;
23472;SDS011;11909;52.516;13.564;2023-07-02T12:08:14;21.20;;;6.22;;
23472;SDS011;11909;52.516;13.564;2023-07-02T12:10:42;13.57;;;6.18;;
23472;SDS011;11909;52.516;13.564;2023-07-02T12:13:10;13.27;;;6.00;;
23472;SDS011;11909;52.516;13.564;2023-07-02T12:15:38;14.38;;;6.07;;
23472;SDS011;11909;52.516;13.564;2023-07-02T12:18:08;17.48;;;5.88;;
23472;SDS011;11909;52.516;13.564;2023-07-02T12:20:37;13.88;;;6.07;;
23472;SDS011;11909;52.516;13.564;2023-07-02T12:23:06;15.15;;;6.13;;
23472;SDS011;11909;52.516;13.564;2023-07-02T12:25:33;14.98;;;6.35;;
23472;SDS011;11909;52.516;13.564;2023-07-02T12:28:01;15.27;;;6.13;;
23472;SDS011;11909;52.516;13.564;2023-07-02T12:30:29;15.82;;;5.60;;
23472;SDS011;11909;52.516;13.564;2023-07-02T12:32:57;14.40;;;5.93;;
23472;SDS011;11909;52.516;13.564;2023-07-02T12:35:27;13.60;;;5.95;;
23472;SDS011;11909;52.516;13.564;2023-07-02T12:37:55;13.27;;;5.80;;
23472;SDS011;11909;52.516;13.564;2023-07-02T12:40:23;14.02;;;5.80;;
23472;SDS011;11909;52.516;13.564;2023-07-02T12:42:50;14.70;;;5.93;;
23472;SDS011;11909;52.516;13.564;2023-07-02T12:45:18;15.27;;;6.50;;
23472;SDS011;11909;52.516;13.564;2023-07-02T12:47:47;16.63;;;6.25;;
23472;SDS011;11909;52.516;13.564;2023-07-02T12:50:15;16.15;;;6.40;;
23472;SDS011;11909;52.516;13.564;2023-07-02T12:52:47;12.85;;;5.90;;
23472;SDS011;11909;52.516;13.564;2023-07-02T12:55:15;15.05;;;5.90;;
23472;SDS011;11909;52.516;13.564;2023-07-02T12:57:42;13.85;;;6.07;;
23472;SDS011;11909;52.516;13.564;2023-07-02T13:00:11;14.40;;;5.50;;
23472;SDS011;11909;52.516;13.564;2023-07-02T13:05:27;14.80;;;6.20;;
23472;SDS011;11909;52.516;13.564;2023-07-02T13:07:57;14.10;;;6.15;;
23472;SDS011;11909;52.516;13.564;2023-07-02T13:10:24;13.80;;;5.82;;
23472;SDS011;11909;52.516;13.564;2023-07-02T13:12:52;13.85;;;6.03;;
23472;SDS011;11909;52.516;13.564;2023-07-02T13:15:26;18.73;;;6.38;;
23472;SDS011;11909;52.516;13.564;2023-07-02T13:17:55;15.68;;;6.20;;
23472;SDS011;11909;52.516;13.564;2023-07-02T13:20:23;15.07;;;6.50;;
23472;SDS011;11909;52.516;13.564;2023-07-02T13:22:51;11.70;;;6.25;;
23472;SDS011;11909;52.516;13.564;2023-07-02T13:25:20;14.20;;;6.25;;
23472;SDS011;11909;52.516;13.564;2023-07-02T13:27:47;11.85;;;6.35;;
23472;SDS011;11909;52.516;13.564;2023-07-02T13:30:16;13.15;;;5.65;;
23472;SDS011;11909;52.516;13.564;2023-07-02T13:32:43;17.42;;;6.18;;
23472;SDS011;11909;52.516;13.564;2023-07-02T13:35:11;15.77;;;6.10;;
23472;SDS011;11909;52.516;13.564;2023-07-02T13:37:39;12.82;;;6.07;;
23472;SDS011;11909;52.516;13.564;2023-07-02T13:40:07;14.35;;;6.03;;
23472;SDS011;11909;52.516;13.564;2023-07-02T13:42:40;14.90;;;6.50;;
23472;SDS011;11909;52.516;13.564;2023-07-02T13:45:08;16.37;;;6.27;;
23472;SDS011;11909;52.516;13.564;2023-07-02T13:47:37;18.58;;;6.13;;
23472;SDS011;11909;52.516;13.564;2023-07-02T13:50:06;18.60;;;6.38;;
23472;SDS011;11909;52.516;13.564;2023-07-02T13:52:34;16.98;;;6.25;;
23472;SDS011;11909;52.516;13.564;2023-07-02T13:55:02;13.80;;;6.03;;
23472;SDS011;11909;52.516;13.564;2023-07-02T13:57:30;16.55;;;6.50;;
23472;SDS011;11909;52.516;13.564;2023-07-02T13:59:59;22.50;;;7.25;;
23472;SDS011;11909;52.516;13.564;2023-07-02T14:02:27;16.83;;;6.50;;
23472;SDS011;11909;52.516;13.564;2023-07-02T14:04:58;14.40;;;6.47;;
23472;SDS011;11909;52.516;13.564;2023-07-02T14:07:26;12.15;;;5.93;;
23472;SDS011;11909;52.516;13.564;2023-07-02T14:09:54;13.85;;;6.13;;
23472;SDS011;11909;52.516;13.564;2023-07-02T14:12:22;15.98;;;6.15;;
23472;SDS011;11909;52.516;13.564;2023-07-02T14:14:50;14.05;;;6.18;;
23472;SDS011;11909;52.516;13.564;2023-07-02T14:17:19;12.77;;;6.32;;
23472;SDS011;11909;52.516;13.564;2023-07-02T14:19:52;13.63;;;6.50;;
23472;SDS011;11909;52.516;13.564;2023-07-02T14:22:19;22.95;;;6.55;;
23472;SDS011;11909;52.516;13.564;2023-07-02T14:24:47;15.68;;;6.55;;
23472;SDS011;11909;52.516;13.564;2023-07-02T14:27:15;15.82;;;6.80;;
23472;SDS011;11909;52.516;13.564;2023-07-02T14:29:43;14.60;;;6.82;;
23472;SDS011;11909;52.516;13.564;2023-07-02T14:32:14;10.27;;;5.90;;
23472;SDS011;11909;52.516;13.564;2023-07-02T14:34:43;15.55;;;6.40;;
23472;SDS011;11909;52.516;13.564;2023-07-02T14:37:11;14.25;;;6.13;;
23472;SDS011;11909;52.516;13.564;2023-07-02T14:39:39;16.58;;;6.22;;
23472;SDS011;11909;52.516;13.564;2023-07-02T14:42:26;15.40;;;6.20;;
23472;SDS011;11909;52.516;13.564;2023-07-02T14:44:54;11.45;;;6.10;;
23472;SDS011;11909;52.516;13.564;2023-07-02T14:47:22;14.05;;;5.72;;
23472;SDS011;11909;52.516;13.564;2023-07-02T14:49:51;11.00;;;5.70;;